Details for EasyJet Switzerland at LSGG




Go Back


Latest METAR
Local Time

LSGG 221750Z 07003KT 9999 -RA FEW050 SCT060 BKN080 17/14 Q1014 NOSIG

22/05/2018, 19:55:12

Description
Results
EasyJet Switzerland Logo
Number of Pilots based at LSGG
0 Pilots Based here
Number of EasyJet Switzerland Flights Departed from LSGG
5 Flights Departed
Number of EasyJet Switzerland Flights Arrived at LSGG
1 Flights Arrived
Number of EasyJet Switzerland Schedules Departing from LSGG
20 Schedules
Number of EasyJet Switzerland Schedules Arriving at LSGG
10 Schedules
Number of EasyJet Switzerland Schedules Departing from LSGG availible today
7 Schedules Today
Number of EasyJet Switzerland Schedules Arriving at LSGG availible today
4 Schedules Today
Average Landing Rate at LSGG
-238 fpm
EasyJet Switzerland Average Landing Rate at LSGG
-187 fpm
Total Fuel Purchased at LSGG by EasyJet Switzerland
19,662.33 kgs / 43,347.57 lbs

Pilots Based at LSGG


Pilot ID
Pilot Name
Pilot Rank
No. of Flights
No. of Flying Hours
There are no pilots assigned to this hub!   Will you be the first?
Content